Time;durP1;ratioP1;P1;durP2;ratioP2;P2;SDS_P1;SDS_P2;PMS_P1;PMS_P2;Temp;Humidity;BMP_temperature;BMP_pressure;BME280_temperature;BME280_humidity;BME280_pressure;Samples;Min_cycle;Max_cycle;Signal;HPM_P1;HPM_P2
2021/06/18 00:00:24;;;;;;;12.77;11.25;;;;;;;;;;5049890;28;20060;-71
2021/06/18 00:02:50;;;;;;;12.93;10.73;;;;;;;;;;5049203;28;20065;-71
2021/06/18 00:05:16;;;;;;;16.10;11.85;;;;;;;;;;5052081;28;20029;-71
2021/06/18 00:07:46;;;;;;;13.73;11.47;;;;;;;;;;5054213;28;20048;-70
2021/06/18 00:10:13;;;;;;;12.90;10.13;;;;;;;;;;5053300;28;20246;-70
2021/06/18 00:12:39;;;;;;;13.45;11.40;;;;;;;;;;5052210;28;20386;-71
2021/06/18 00:15:06;;;;;;;11.65;10.55;;;;;;;;;;5054173;28;20025;-71
2021/06/18 00:17:32;;;;;;;12.63;11.15;;;;;;;;;;5052277;28;20033;-71
2021/06/18 00:19:59;;;;;;;12.47;10.93;;;;;;;;;;5041150;28;20034;-71
2021/06/18 00:22:25;;;;;;;12.65;11.02;;;;;;;;;;5052890;28;20029;-71
2021/06/18 00:24:51;;;;;;;15.90;11.10;;;;;;;;;;5052386;28;20398;-70
2021/06/18 00:27:17;;;;;;;12.67;10.57;;;;;;;;;;5053255;28;20056;-71
2021/06/18 00:29:43;;;;;;;15.40;11.50;;;;;;;;;;5052261;28;20039;-71
2021/06/18 00:32:09;;;;;;;13.17;11.80;;;;;;;;;;5053586;28;20434;-71
2021/06/18 00:34:35;;;;;;;13.93;11.33;;;;;;;;;;5051109;28;20033;-71
2021/06/18 00:37:01;;;;;;;15.05;10.90;;;;;;;;;;5051586;28;20064;-71
2021/06/18 00:39:27;;;;;;;13.13;11.90;;;;;;;;;;5052254;28;20588;-70
2021/06/18 00:41:53;;;;;;;12.37;11.27;;;;;;;;;;5054701;28;20159;-70
2021/06/18 00:44:19;;;;;;;12.80;11.50;;;;;;;;;;5058795;28;20055;-70
2021/06/18 00:46:45;;;;;;;15.87;14.13;;;;;;;;;;5051808;28;20025;-71
2021/06/18 00:49:13;;;;;;;15.27;13.60;;;;;;;;;;5053420;28;20021;-71
2021/06/18 00:51:40;;;;;;;24.10;16.70;;;;;;;;;;5054809;28;20033;-70
2021/06/18 00:54:06;;;;;;;20.17;15.43;;;;;;;;;;5052412;28;20402;-71
2021/06/18 00:56:33;;;;;;;26.50;18.77;;;;;;;;;;5051798;28;20036;-71
2021/06/18 00:58:59;;;;;;;;;;;;;;;;;;5053763;28;20021;-71
2021/06/18 01:01:25;;;;;;;18.50;13.07;;;;;;;;;;5052645;28;19940;-71
2021/06/18 01:03:51;;;;;;;13.70;12.37;;;;;;;;;;5051671;28;20024;-70
2021/06/18 01:06:23;;;;;;;13.80;12.30;;;;;;;;;;5052354;28;20588;-71
2021/06/18 01:09:09;;;;;;;13.45;12.05;;;;;;;;;;5053313;28;20105;-70
2021/06/18 01:11:48;;;;;;;13.48;12.05;;;;;;;;;;5052468;28;20029;-71
2021/06/18 01:14:27;;;;;;;14.50;12.32;;;;;;;;;;5051503;28;20112;-70
2021/06/18 01:16:56;;;;;;;13.77;12.38;;;;;;;;;;5051611;28;20033;-71
2021/06/18 01:19:28;;;;;;;13.07;11.77;;;;;;;;;;5054142;28;20443;-71
2021/06/18 01:21:55;;;;;;;13.25;11.93;;;;;;;;;;5057083;28;20031;-70
2021/06/18 01:24:40;;;;;;;14.13;12.15;;;;;;;;;;5053084;28;20458;-70
2021/06/18 01:27:25;;;;;;;14.55;11.90;;;;;;;;;;5053185;28;20036;-70
2021/06/18 01:30:03;;;;;;;15.07;12.05;;;;;;;;;;5060077;28;20032;-71
2021/06/18 01:32:33;;;;;;;14.02;12.52;;;;;;;;;;5057337;28;20028;-71
2021/06/18 01:35:00;;;;;;;14.38;12.43;;;;;;;;;;5057375;28;20036;-70
2021/06/18 01:37:27;;;;;;;13.32;11.98;;;;;;;;;;5055498;28;20509;-70
2021/06/18 01:39:55;;;;;;;15.85;12.18;;;;;;;;;;5056999;28;20881;-71
2021/06/18 01:42:21;;;;;;;13.52;12.05;;;;;;;;;;5049055;28;20032;-70
2021/06/18 01:44:48;;;;;;;13.25;12.05;;;;;;;;;;5054815;28;20595;-71
2021/06/18 01:47:14;;;;;;;14.65;12.55;;;;;;;;;;5058533;28;20052;-71
2021/06/18 01:49:42;;;;;;;14.60;13.05;;;;;;;;;;5056723;28;20170;-71
2021/06/18 01:52:09;;;;;;;14.20;12.73;;;;;;;;;;5053804;28;20105;-71
2021/06/18 01:54:35;;;;;;;;;;;;;;;;;;5059749;28;20029;-71
2021/06/18 01:57:01;;;;;;;14.73;12.48;;;;;;;;;;5052631;28;19911;-71
2021/06/18 01:59:29;;;;;;;17.25;12.38;;;;;;;;;;5052270;28;20087;-71
2021/06/18 02:01:56;;;;;;;17.75;13.18;;;;;;;;;;5050872;28;20033;-71
2021/06/18 02:04:22;;;;;;;15.45;13.18;;;;;;;;;;5051095;28;20029;-70
2021/06/18 02:06:49;;;;;;;15.30;12.47;;;;;;;;;;5050286;28;20448;-71
2021/06/18 02:09:16;;;;;;;18.42;13.25;;;;;;;;;;5051669;28;20802;-71
2021/06/18 02:11:43;;;;;;;15.75;13.25;;;;;;;;;;5051568;28;20037;-70
2021/06/18 02:14:11;;;;;;;14.43;12.93;;;;;;;;;;5051098;28;20067;-70
2021/06/18 02:16:39;;;;;;;14.30;13.00;;;;;;;;;;5051608;28;20415;-70
2021/06/18 02:19:06;;;;;;;17.70;13.43;;;;;;;;;;5051844;28;20079;-70
2021/06/18 02:21:33;;;;;;;14.27;12.88;;;;;;;;;;5049721;28;20025;-70
2021/06/18 02:24:00;;;;;;;14.93;13.00;;;;;;;;;;5050753;28;20033;-69
2021/06/18 02:26:26;;;;;;;13.73;12.35;;;;;;;;;;5049600;28;20072;-70
2021/06/18 02:28:53;;;;;;;17.27;13.35;;;;;;;;;;5051445;28;20109;-70
2021/06/18 02:31:21;;;;;;;14.05;12.55;;;;;;;;;;5050679;28;20037;-70
2021/06/18 02:33:47;;;;;;;16.00;12.80;;;;;;;;;;5051061;28;20100;-70
2021/06/18 02:36:13;;;;;;;15.00;13.48;;;;;;;;;;5050031;28;20405;-70
2021/06/18 02:38:42;;;;;;;14.80;12.68;;;;;;;;;;5051114;28;20470;-70
2021/06/18 02:41:08;;;;;;;15.70;12.43;;;;;;;;;;5050194;28;20041;-71
2021/06/18 02:43:34;;;;;;;17.67;13.13;;;;;;;;;;5050319;28;20032;-71
2021/06/18 02:46:00;;;;;;;18.90;13.23;;;;;;;;;;5060106;28;20111;-70
2021/06/18 02:48:38;;;;;;;13.23;11.95;;;;;;;;;;5071614;28;20505;-70
2021/06/18 02:51:31;;;;;;;14.55;12.85;;;;;;;;;;5067397;28;20690;-70
2021/06/18 02:54:09;;;;;;;14.18;12.68;;;;;;;;;;5064079;28;20059;-71
2021/06/18 02:56:39;;;;;;;15.38;12.50;;;;;;;;;;5069989;28;20493;-70
2021/06/18 02:59:14;;;;;;;14.05;12.32;;;;;;;;;;5070509;28;20024;-70
2021/06/18 03:01:41;;;;;;;14.68;13.15;;;;;;;;;;5071012;28;20020;-71
2021/06/18 03:04:10;;;;;;;13.93;12.52;;;;;;;;;;5070157;28;20495;-70
2021/06/18 03:06:38;;;;;;;14.95;12.77;;;;;;;;;;5056293;28;20044;-70
2021/06/18 03:09:06;;;;;;;15.10;13.48;;;;;;;;;;5049858;28;20588;-71
2021/06/18 03:11:33;;;;;;;15.65;11.75;;;;;;;;;;5052250;28;20108;-70
2021/06/18 03:14:02;;;;;;;14.50;12.90;;;;;;;;;;5051162;28;20036;-71
2021/06/18 03:16:29;;;;;;;13.73;12.30;;;;;;;;;;5050002;28;20037;-70
2021/06/18 03:18:55;;;;;;;;;;;;;;;;;;5051809;28;20033;-70
2021/06/18 03:21:21;;;;;;;14.20;12.48;;;;;;;;;;5050063;28;19958;-71
2021/06/18 03:23:48;;;;;;;13.98;12.45;;;;;;;;;;5049617;28;20033;-70
2021/06/18 03:26:15;;;;;;;13.70;12.30;;;;;;;;;;5049145;28;20120;-70
2021/06/18 03:28:41;;;;;;;14.23;12.93;;;;;;;;;;5049639;28;20025;-70
2021/06/18 03:31:09;;;;;;;16.77;13.10;;;;;;;;;;5050137;28;20441;-71
2021/06/18 03:33:36;;;;;;;14.73;13.25;;;;;;;;;;5068462;28;20149;-70
2021/06/18 03:36:02;;;;;;;14.77;13.05;;;;;;;;;;5061164;28;20420;-70
2021/06/18 03:38:29;;;;;;;16.08;14.00;;;;;;;;;;5050143;28;20482;-70
2021/06/18 03:40:55;;;;;;;18.25;13.43;;;;;;;;;;5052734;28;20041;-71
2021/06/18 03:43:23;;;;;;;16.45;13.65;;;;;;;;;;5053607;28;20025;-70
2021/06/18 03:45:51;;;;;;;17.23;13.35;;;;;;;;;;5053202;28;20032;-70
2021/06/18 03:48:17;;;;;;;15.80;13.23;;;;;;;;;;5056938;28;20028;-71
2021/06/18 03:50:43;;;;;;;17.50;13.17;;;;;;;;;;5053745;28;20017;-70
2021/06/18 03:53:10;;;;;;;14.18;12.68;;;;;;;;;;5053580;28;20029;-71
2021/06/18 03:55:36;;;;;;;16.10;13.35;;;;;;;;;;5053627;28;20033;-71
2021/06/18 03:58:04;;;;;;;17.20;12.50;;;;;;;;;;5053860;28;20033;-71
2021/06/18 04:00:33;;;;;;;17.30;12.75;;;;;;;;;;5053055;28;20031;-70
2021/06/18 04:02:59;;;;;;;15.68;12.88;;;;;;;;;;5053647;28;20075;-71
2021/06/18 04:05:25;;;;;;;15.17;13.27;;;;;;;;;;5053346;28;20472;-70
2021/06/18 04:07:53;;;;;;;13.85;12.45;;;;;;;;;;5053235;28;20033;-70
2021/06/18 04:10:19;;;;;;;14.63;12.07;;;;;;;;;;5052881;28;20032;-71
2021/06/18 04:12:47;;;;;;;13.13;11.82;;;;;;;;;;5052217;28;20033;-70
2021/06/18 04:15:14;;;;;;;13.63;12.13;;;;;;;;;;5053680;28;20072;-70
2021/06/18 04:17:40;;;;;;;14.95;12.00;;;;;;;;;;5053390;28;20098;-70
2021/06/18 04:20:09;;;;;;;16.25;12.30;;;;;;;;;;5053259;28;20036;-70
2021/06/18 04:22:35;;;;;;;15.88;12.70;;;;;;;;;;5047265;28;20064;-70
2021/06/18 04:25:01;;;;;;;;;;;;;;;;;;4346791;28;10000825;-70
2021/06/18 04:27:27;;;;;;;17.83;14.15;;;;;;;;;;5047241;28;19952;-70
2021/06/18 04:29:53;;;;;;;17.70;13.70;;;;;;;;;;5046347;28;20794;-70
2021/06/18 04:32:20;;;;;;;16.15;13.75;;;;;;;;;;5046669;28;20029;-70
2021/06/18 04:34:47;;;;;;;14.82;13.27;;;;;;;;;;5047202;28;20029;-71
2021/06/18 04:37:13;;;;;;;;;;;;;;;;;;5047242;28;20758;-71
2021/06/18 04:39:39;;;;;;;15.77;13.13;;;;;;;;;;5047721;28;19912;-70
2021/06/18 04:42:05;;;;;;;18.73;13.57;;;;;;;;;;5047873;28;20029;-70
2021/06/18 04:44:31;;;;;;;14.57;13.07;;;;;;;;;;5048012;28;20569;-71
2021/06/18 04:46:57;;;;;;;13.63;12.23;;;;;;;;;;5045357;28;20373;-70
2021/06/18 04:49:24;;;;;;;17.58;12.10;;;;;;;;;;5048621;28;20413;-71
2021/06/18 04:51:50;;;;;;;15.27;13.30;;;;;;;;;;5047479;28;20489;-70
2021/06/18 04:54:16;;;;;;;13.80;12.35;;;;;;;;;;5068178;28;20090;-69
2021/06/18 04:56:42;;;;;;;22.57;12.97;;;;;;;;;;5059040;28;20029;-69
2021/06/18 04:59:09;;;;;;;14.47;12.13;;;;;;;;;;5052460;28;20734;-69
2021/06/18 05:01:35;;;;;;;20.15;13.50;;;;;;;;;;5050921;28;20033;-69
2021/06/18 05:04:01;;;;;;;14.63;12.17;;;;;;;;;;5054068;28;20044;-69
2021/06/18 05:06:27;;;;;;;14.87;13.00;;;;;;;;;;5054607;28;20265;-69
2021/06/18 05:08:53;;;;;;;16.43;12.40;;;;;;;;;;5053066;28;20075;-69
2021/06/18 05:11:23;;;;;;;12.25;11.05;;;;;;;;;;5050463;28;20402;-70
2021/06/18 05:13:50;;;;;;;16.90;12.75;;;;;;;;;;5051901;28;20031;-69
2021/06/18 05:16:16;;;;;;;15.02;11.52;;;;;;;;;;5051720;28;20086;-69
2021/06/18 05:18:42;;;;;;;16.30;13.00;;;;;;;;;;5052467;28;20036;-69
2021/06/18 05:21:08;;;;;;;13.90;11.77;;;;;;;;;;5052691;28;20278;-69
2021/06/18 05:23:34;;;;;;;15.20;12.67;;;;;;;;;;5053091;28;20028;-68
2021/06/18 05:26:00;;;;;;;13.13;11.67;;;;;;;;;;5052974;28;20024;-69
2021/06/18 05:28:26;;;;;;;13.27;11.90;;;;;;;;;;5057221;28;20405;-69
2021/06/18 05:30:52;;;;;;;13.05;11.65;;;;;;;;;;5070900;28;20575;-70
2021/06/18 05:33:18;;;;;;;16.33;11.80;;;;;;;;;;5061333;28;20440;-68
2021/06/18 05:35:45;;;;;;;16.33;11.98;;;;;;;;;;5072806;28;20028;-69
2021/06/18 05:38:11;;;;;;;16.50;11.50;;;;;;;;;;5054171;28;20127;-69
2021/06/18 05:40:41;;;;;;;13.13;11.65;;;;;;;;;;5072020;28;20048;-69
2021/06/18 05:43:11;;;;;;;14.27;11.82;;;;;;;;;;5061272;28;20029;-69
2021/06/18 05:45:38;;;;;;;12.90;11.07;;;;;;;;;;5048369;28;20111;-68
2021/06/18 05:48:04;;;;;;;12.38;11.07;;;;;;;;;;5049785;28;20029;-67
2021/06/18 05:50:31;;;;;;;13.35;12.02;;;;;;;;;;5064154;28;20021;-67
2021/06/18 05:52:57;;;;;;;14.27;11.27;;;;;;;;;;5041035;28;20022;-67
2021/06/18 05:55:23;;;;;;;13.05;10.80;;;;;;;;;;5053703;28;20079;-68
2021/06/18 05:57:49;;;;;;;19.35;11.43;;;;;;;;;;5051223;28;20545;-67
2021/06/18 06:00:16;;;;;;;15.18;12.18;;;;;;;;;;5056165;28;20020;-67
2021/06/18 06:02:42;;;;;;;18.48;11.85;;;;;;;;;;5049041;28;20104;-67
2021/06/18 06:05:08;;;;;;;14.17;12.67;;;;;;;;;;5054724;28;20024;-67
2021/06/18 06:07:34;;;;;;;13.85;11.85;;;;;;;;;;5044804;28;20666;-67
2021/06/18 06:10:00;;;;;;;15.60;10.93;;;;;;;;;;5037391;28;20540;-67
2021/06/18 06:12:26;;;;;;;15.53;11.30;;;;;;;;;;5053258;28;20041;-68
2021/06/18 06:14:53;;;;;;;14.68;10.57;;;;;;;;;;5052193;28;20277;-67
2021/06/18 06:17:19;;;;;;;16.65;10.25;;;;;;;;;;5053471;28;20064;-67
2021/06/18 06:19:45;;;;;;;12.95;10.35;;;;;;;;;;5045935;28;20025;-68
2021/06/18 06:22:11;;;;;;;13.30;9.98;;;;;;;;;;5046561;28;20040;-67
2021/06/18 06:24:37;;;;;;;13.00;10.25;;;;;;;;;;5043154;28;20040;-67
2021/06/18 06:27:04;;;;;;;12.30;10.65;;;;;;;;;;5056037;28;20044;-67
2021/06/18 06:29:30;;;;;;;11.40;10.00;;;;;;;;;;5050454;28;20021;-68
2021/06/18 06:31:56;;;;;;;14.55;11.48;;;;;;;;;;5048458;28;20079;-68
2021/06/18 06:34:22;;;;;;;15.10;12.07;;;;;;;;;;5050501;28;20024;-68
2021/06/18 06:36:50;;;;;;;12.43;11.07;;;;;;;;;;5049816;28;20033;-67
2021/06/18 06:39:16;;;;;;;20.80;12.18;;;;;;;;;;5050533;28;20482;-68
2021/06/18 06:41:42;;;;;;;14.23;12.57;;;;;;;;;;5049203;28;20453;-68
2021/06/18 06:44:08;;;;;;;12.53;11.03;;;;;;;;;;5055210;28;20362;-68
2021/06/18 06:46:35;;;;;;;11.63;10.27;;;;;;;;;;5048703;28;20408;-68
2021/06/18 06:49:01;;;;;;;12.20;9.85;;;;;;;;;;5051616;28;20020;-68
2021/06/18 06:51:27;;;;;;;11.75;9.40;;;;;;;;;;4341778;28;10020631;-68
2021/06/18 06:53:53;;;;;;;;;;;;;;;;;;4696804;28;10000336;-69
2021/06/18 06:56:19;;;;;;;12.57;11.18;;;;;;;;;;5064905;28;19912;-67
2021/06/18 06:58:45;;;;;;;17.58;10.75;;;;;;;;;;5052024;28;20076;-67
2021/06/18 07:01:11;;;;;;;12.15;10.70;;;;;;;;;;5042798;28;20092;-67
2021/06/18 07:03:38;;;;;;;15.27;11.05;;;;;;;;;;5061783;28;20032;-66
2021/06/18 07:06:05;;;;;;;14.85;11.88;;;;;;;;;;5065573;28;20032;-69
2021/06/18 07:08:31;;;;;;;15.32;11.98;;;;;;;;;;5049913;28;20021;-66
2021/06/18 07:10:57;;;;;;;15.73;10.93;;;;;;;;;;5049305;28;20036;-66
2021/06/18 07:13:23;;;;;;;19.02;11.30;;;;;;;;;;5044842;28;20030;-67
2021/06/18 07:15:50;;;;;;;18.95;11.40;;;;;;;;;;5042490;28;20422;-68
2021/06/18 07:18:17;;;;;;;15.32;10.18;;;;;;;;;;5036615;28;20099;-68
2021/06/18 07:20:43;;;;;;;11.68;10.48;;;;;;;;;;5059155;28;20020;-68
2021/06/18 07:23:09;;;;;;;25.57;13.50;;;;;;;;;;5063816;28;20025;-71
2021/06/18 07:25:35;;;;;;;25.42;12.10;;;;;;;;;;5045693;28;20247;-66
2021/06/18 07:28:02;;;;;;;14.30;10.77;;;;;;;;;;5065957;28;20025;-67
2021/06/18 07:30:28;;;;;;;14.48;10.07;;;;;;;;;;5073997;28;20111;-67
2021/06/18 07:32:57;;;;;;;15.18;10.93;;;;;;;;;;5063947;28;20067;-67
2021/06/18 07:35:23;;;;;;;15.60;9.77;;;;;;;;;;5052622;28;20036;-67
2021/06/18 07:37:49;;;;;;;11.30;9.07;;;;;;;;;;5053779;28;20063;-67
2021/06/18 07:40:18;;;;;;;14.27;9.53;;;;;;;;;;5068300;28;20766;-67
2021/06/18 07:42:45;;;;;;;13.50;9.65;;;;;;;;;;5066844;28;20080;-67
2021/06/18 07:45:12;;;;;;;12.80;9.38;;;;;;;;;;5052179;28;20496;-67
2021/06/18 07:47:41;;;;;;;17.33;9.82;;;;;;;;;;5050236;28;20033;-67
2021/06/18 07:50:09;;;;;;;15.63;9.32;;;;;;;;;;5054151;28;20024;-67
2021/06/18 07:52:35;;;;;;;14.50;9.60;;;;;;;;;;5034294;28;20033;-67
2021/06/18 07:55:02;;;;;;;13.85;9.63;;;;;;;;;;5040510;28;20036;-67
2021/06/18 07:57:28;;;;;;;15.55;9.07;;;;;;;;;;5053730;28;20031;-67
2021/06/18 07:59:54;;;;;;;12.40;7.90;;;;;;;;;;5051375;28;20665;-67
2021/06/18 08:02:20;;;;;;;11.85;7.60;;;;;;;;;;5045865;28;20751;-68
2021/06/18 08:04:46;;;;;;;9.50;7.55;;;;;;;;;;5063611;28;20036;-68
2021/06/18 08:07:12;;;;;;;16.95;8.52;;;;;;;;;;5048203;28;20026;-68
2021/06/18 08:09:38;;;;;;;9.73;7.28;;;;;;;;;;5042954;28;20042;-68
2021/06/18 08:12:04;;;;;;;10.15;7.95;;;;;;;;;;5053140;28;20072;-68
2021/06/18 08:14:31;;;;;;;12.48;7.25;;;;;;;;;;5046360;28;20026;-68
2021/06/18 08:16:57;;;;;;;9.73;7.05;;;;;;;;;;5041130;28;20079;-68
2021/06/18 08:19:23;;;;;;;14.75;7.00;;;;;;;;;;5052998;28;20043;-69
2021/06/18 08:21:51;;;;;;;8.52;7.38;;;;;;;;;;5041257;28;20475;-68
2021/06/18 08:24:17;;;;;;;15.80;6.97;;;;;;;;;;5038219;28;20030;-68
2021/06/18 08:26:43;;;;;;;11.70;7.47;;;;;;;;;;5052517;28;20028;-68
2021/06/18 08:29:09;;;;;;;13.35;7.57;;;;;;;;;;5051488;28;20036;-68
2021/06/18 08:31:35;;;;;;;9.55;7.18;;;;;;;;;;5033924;28;20104;-68
2021/06/18 08:34:01;;;;;;;17.85;7.50;;;;;;;;;;5042361;28;20118;-67
2021/06/18 08:36:27;;;;;;;13.18;7.55;;;;;;;;;;5050922;28;20486;-67
2021/06/18 08:38:53;;;;;;;12.20;7.70;;;;;;;;;;5053505;28;20051;-68
2021/06/18 08:41:20;;;;;;;13.73;7.28;;;;;;;;;;5037043;28;20504;-67
2021/06/18 08:43:46;;;;;;;10.85;7.78;;;;;;;;;;5050934;28;20569;-67
2021/06/18 08:46:12;;;;;;;10.45;7.18;;;;;;;;;;5051218;28;20017;-68
2021/06/18 08:48:38;;;;;;;13.68;7.65;;;;;;;;;;5053937;28;20029;-68
2021/06/18 08:51:05;;;;;;;13.77;8.05;;;;;;;;;;5061879;28;20025;-68
2021/06/18 08:53:35;;;;;;;11.88;7.63;;;;;;;;;;5060494;28;20023;-68
2021/06/18 08:56:04;;;;;;;12.63;7.68;;;;;;;;;;5062311;28;20021;-67
2021/06/18 08:58:30;;;;;;;13.27;7.50;;;;;;;;;;5063468;28;20082;-67
2021/06/18 09:00:56;;;;;;;13.43;7.57;;;;;;;;;;5063348;28;20040;-67
2021/06/18 09:03:35;;;;;;;11.48;7.32;;;;;;;;;;5062249;28;20056;-67
2021/06/18 09:06:02;;;;;;;15.75;7.43;;;;;;;;;;5054309;28;20025;-67
2021/06/18 09:08:28;;;;;;;13.18;7.40;;;;;;;;;;5053482;28;20029;-68
2021/06/18 09:10:54;;;;;;;15.63;7.90;;;;;;;;;;5054555;28;20025;-67
2021/06/18 09:13:33;;;;;;;15.70;8.77;;;;;;;;;;5052539;28;20033;-67
2021/06/18 09:16:00;;;;;;;27.77;9.18;;;;;;;;;;5058878;28;20103;-67
2021/06/18 09:18:26;;;;;;;27.77;10.00;;;;;;;;;;5057058;28;20029;-67
2021/06/18 09:20:53;;;;;;;18.40;10.18;;;;;;;;;;5054965;28;20032;-67
2021/06/18 09:23:24;;;;;;;16.25;9.93;;;;;;;;;;5054579;28;20367;-67
2021/06/18 09:25:50;;;;;;;14.02;10.10;;;;;;;;;;5059084;28;20017;-67
2021/06/18 09:28:16;;;;;;;;;;;;;;;;;;5062077;28;20044;-67
2021/06/18 09:30:43;;;;;;;23.23;10.90;;;;;;;;;;5037272;28;20082;-67
2021/06/18 09:33:17;;;;;;;24.48;11.18;;;;;;;;;;5051710;28;20069;-66
2021/06/18 09:36:02;;;;;;;22.02;10.98;;;;;;;;;;5050916;28;20048;-66
2021/06/18 09:38:41;;;;;;;20.73;10.93;;;;;;;;;;5050649;28;20033;-66
2021/06/18 09:41:27;;;;;;;26.10;11.63;;;;;;;;;;5047206;28;20243;-67
2021/06/18 09:43:56;;;;;;;24.95;12.27;;;;;;;;;;5052193;28;20036;-67
2021/06/18 09:46:38;;;;;;;25.13;11.40;;;;;;;;;;5051048;28;20025;-66
2021/06/18 09:49:04;;;;;;;24.33;11.60;;;;;;;;;;5041397;28;20021;-67
2021/06/18 09:51:30;;;;;;;14.27;9.82;;;;;;;;;;5046725;28;20029;-66
2021/06/18 09:53:56;;;;;;;15.50;10.63;;;;;;;;;;5042864;28;20033;-67
2021/06/18 09:56:23;;;;;;;21.67;10.43;;;;;;;;;;5042074;28;20493;-67
2021/06/18 09:58:49;;;;;;;17.77;10.48;;;;;;;;;;5040084;28;20490;-67
2021/06/18 10:01:22;;;;;;;17.83;10.27;;;;;;;;;;5041169;28;20124;-67
2021/06/18 10:04:00;;;;;;;12.90;9.52;;;;;;;;;;5041861;28;20060;-66
2021/06/18 10:06:27;;;;;;;18.58;9.88;;;;;;;;;;5039838;28;20024;-67
2021/06/18 10:08:54;;;;;;;17.27;9.30;;;;;;;;;;5049641;28;20367;-69
2021/06/18 10:11:20;;;;;;;15.52;9.18;;;;;;;;;;5038025;28;20430;-68
2021/06/18 10:13:46;;;;;;;20.02;9.23;;;;;;;;;;5044945;28;20017;-69
2021/06/18 10:16:16;;;;;;;12.50;9.38;;;;;;;;;;5043779;28;20033;-67
2021/06/18 10:18:42;;;;;;;15.95;9.38;;;;;;;;;;5037230;28;20026;-67
2021/06/18 10:21:09;;;;;;;14.95;10.00;;;;;;;;;;5028495;28;20028;-68
2021/06/18 10:23:35;;;;;;;14.15;9.10;;;;;;;;;;5028839;28;20382;-68
2021/06/18 10:26:02;;;;;;;16.08;8.10;;;;;;;;;;5030063;28;20025;-68
2021/06/18 10:28:30;;;;;;;14.40;8.10;;;;;;;;;;5029730;28;20124;-68
2021/06/18 10:30:57;;;;;;;14.70;8.20;;;;;;;;;;5031616;28;20022;-68
2021/06/18 10:33:26;;;;;;;18.33;8.10;;;;;;;;;;5042741;28;20075;-68
2021/06/18 10:35:59;;;;;;;15.73;7.90;;;;;;;;;;5051074;28;20096;-68
2021/06/18 10:38:29;;;;;;;14.52;7.80;;;;;;;;;;5049527;28;20032;-68
2021/06/18 10:40:56;;;;;;;14.32;7.47;;;;;;;;;;5050285;28;20041;-69
2021/06/18 10:43:32;;;;;;;13.68;7.38;;;;;;;;;;5049984;28;20511;-68
2021/06/18 10:45:58;;;;;;;14.68;7.05;;;;;;;;;;5053061;28;20036;-69
2021/06/18 10:48:43;;;;;;;12.95;6.82;;;;;;;;;;5050107;28;20032;-68
2021/06/18 10:51:30;;;;;;;14.27;6.03;;;;;;;;;;5051233;28;20029;-70
2021/06/18 10:54:03;;;;;;;11.00;5.53;;;;;;;;;;5053839;28;20040;-70
2021/06/18 10:56:47;;;;;;;12.50;5.78;;;;;;;;;;5066723;28;20013;-68
2021/06/18 10:59:32;;;;;;;10.40;5.70;;;;;;;;;;5069415;28;20673;-68
2021/06/18 11:02:00;;;;;;;14.10;5.40;;;;;;;;;;5067840;28;20394;-69
2021/06/18 11:04:38;;;;;;;10.25;5.93;;;;;;;;;;5068009;28;20086;-69
2021/06/18 11:07:21;;;;;;;10.25;5.97;;;;;;;;;;5070996;28;20020;-68
2021/06/18 11:09:48;;;;;;;12.88;5.63;;;;;;;;;;5071585;28;20025;-69
2021/06/18 11:12:26;;;;;;;10.98;5.13;;;;;;;;;;5057429;28;20094;-69
2021/06/18 11:14:56;;;;;;;12.50;5.50;;;;;;;;;;5051130;28;20043;-68
2021/06/18 11:17:41;;;;;;;10.30;4.80;;;;;;;;;;5049559;28;20033;-68
2021/06/18 11:20:15;;;;;;;11.73;4.50;;;;;;;;;;5051311;28;20039;-69
2021/06/18 11:22:47;;;;;;;11.57;4.40;;;;;;;;;;5050131;28;20029;-69
2021/06/18 11:25:32;;;;;;;10.52;3.95;;;;;;;;;;5051414;28;20514;-69
2021/06/18 11:28:17;;;;;;;11.00;2.97;;;;;;;;;;4341550;28;10000956;-69
2021/06/18 11:30:56;;;;;;;9.85;3.90;;;;;;;;;;5044357;28;20021;-69
2021/06/18 11:33:37;;;;;;;9.05;3.40;;;;;;;;;;5044758;28;20033;-70
2021/06/18 11:36:07;;;;;;;9.07;2.45;;;;;;;;;;5043480;28;20033;-69
2021/06/18 11:38:34;;;;;;;9.07;2.13;;;;;;;;;;5044758;28;20724;-69
2021/06/18 11:41:01;;;;;;;11.13;2.70;;;;;;;;;;5045581;28;20060;-69
2021/06/18 11:43:28;;;;;;;5.57;2.78;;;;;;;;;;5043236;28;20041;-69
2021/06/18 11:45:55;;;;;;;7.82;3.10;;;;;;;;;;5045469;28;20021;-69
2021/06/18 11:48:21;;;;;;;13.95;3.60;;;;;;;;;;5043752;28;20060;-69
2021/06/18 11:50:47;;;;;;;10.10;3.10;;;;;;;;;;5043422;28;20029;-69
2021/06/18 11:53:14;;;;;;;12.85;2.90;;;;;;;;;;5043702;28;20025;-70
2021/06/18 11:55:41;;;;;;;9.27;2.75;;;;;;;;;;5045004;28;20025;-69
2021/06/18 11:58:07;;;;;;;8.75;3.22;;;;;;;;;;5043328;28;20100;-69
2021/06/18 12:00:33;;;;;;;9.23;3.08;;;;;;;;;;5044507;28;20078;-70
2021/06/18 12:03:00;;;;;;;6.53;2.97;;;;;;;;;;5048167;28;20025;-69
2021/06/18 12:05:35;;;;;;;11.35;3.72;;;;;;;;;;5049019;28;20052;-70
2021/06/18 12:08:11;;;;;;;13.32;3.95;;;;;;;;;;5048092;28;20024;-69
2021/06/18 12:10:37;;;;;;;12.20;3.72;;;;;;;;;;5049081;28;20068;-69
2021/06/18 12:13:04;;;;;;;6.80;3.72;;;;;;;;;;5048371;28;20033;-68
2021/06/18 12:15:30;;;;;;;;;;;;;;;;;;5047726;28;20037;-70
2021/06/18 12:18:01;;;;;;;9.02;4.32;;;;;;;;;;5047993;28;19912;-69
2021/06/18 12:20:29;;;;;;;9.75;4.43;;;;;;;;;;5045787;28;20383;-69
2021/06/18 12:22:55;;;;;;;9.20;4.32;;;;;;;;;;5041899;28;20175;-69
2021/06/18 12:25:21;;;;;;;10.52;4.50;;;;;;;;;;5042875;28;20394;-70
2021/06/18 12:27:47;;;;;;;10.45;4.78;;;;;;;;;;5044226;28;20025;-70
2021/06/18 12:30:18;;;;;;;15.25;5.28;;;;;;;;;;5042356;28;20474;-68
2021/06/18 12:32:46;;;;;;;9.27;5.10;;;;;;;;;;5046515;28;20021;-68
2021/06/18 12:35:12;;;;;;;10.63;4.88;;;;;;;;;;5046424;28;20140;-69
2021/06/18 12:37:40;;;;;;;10.43;4.93;;;;;;;;;;5045909;28;20021;-69
2021/06/18 12:40:09;;;;;;;13.40;5.15;;;;;;;;;;5045132;28;20041;-68
2021/06/18 12:42:40;;;;;;;8.38;4.25;;;;;;;;;;5045433;28;20087;-68
2021/06/18 12:45:08;;;;;;;9.80;4.80;;;;;;;;;;5044189;28;20681;-70
2021/06/18 12:47:34;;;;;;;10.48;4.82;;;;;;;;;;5046570;28;20104;-69
2021/06/18 12:50:22;;;;;;;9.65;4.43;;;;;;;;;;5045975;28;20024;-69
2021/06/18 12:52:50;;;;;;;8.70;4.53;;;;;;;;;;5044894;28;20029;-69
2021/06/18 12:55:16;;;;;;;14.50;4.80;;;;;;;;;;5047361;28;20103;-69
2021/06/18 12:57:42;;;;;;;14.27;5.20;;;;;;;;;;5047242;28;20037;-68
2021/06/18 13:00:10;;;;;;;12.20;4.55;;;;;;;;;;5046575;28;20039;-69
2021/06/18 13:02:40;;;;;;;8.90;4.35;;;;;;;;;;5046324;28;20029;-70
2021/06/18 13:05:17;;;;;;;14.35;4.57;;;;;;;;;;5048197;28;20017;-69
2021/06/18 13:07:43;;;;;;;;;;;;;;;;;;5045114;28;20520;-70
2021/06/18 13:10:09;;;;;;;14.73;5.53;;;;;;;;;;5045457;28;19962;-70
2021/06/18 13:12:36;;;;;;;14.40;5.70;;;;;;;;;;5045379;28;20517;-69
2021/06/18 13:15:02;;;;;;;;;;;;;;;;;;5045910;28;20056;-69
2021/06/18 13:17:28;;;;;;;15.00;5.60;;;;;;;;;;5044979;28;20031;-68
2021/06/18 13:19:54;;;;;;;12.25;5.38;;;;;;;;;;5044612;28;20108;-69
2021/06/18 13:22:25;;;;;;;8.52;4.97;;;;;;;;;;5045185;28;20025;-70
2021/06/18 13:24:56;;;;;;;9.57;5.30;;;;;;;;;;5046405;28;20431;-70
2021/06/18 13:27:27;;;;;;;10.98;5.30;;;;;;;;;;5044991;28;20044;-70
2021/06/18 13:29:56;;;;;;;12.55;6.00;;;;;;;;;;5046732;28;20052;-69
2021/06/18 13:32:33;;;;;;;12.00;5.50;;;;;;;;;;5045683;28;20070;-69
2021/06/18 13:35:04;;;;;;;11.90;5.70;;;;;;;;;;5047263;28;20543;-69
2021/06/18 13:37:31;;;;;;;14.35;6.05;;;;;;;;;;5045228;28;20116;-69
2021/06/18 13:39:57;;;;;;;16.10;5.53;;;;;;;;;;5046668;28;20033;-70
2021/06/18 13:42:23;;;;;;;11.98;5.80;;;;;;;;;;5045460;28;20498;-68
2021/06/18 13:44:49;;;;;;;10.93;5.30;;;;;;;;;;5045844;28;20757;-70
2021/06/18 13:47:15;;;;;;;10.18;5.45;;;;;;;;;;5045294;28;20039;-70
2021/06/18 13:49:41;;;;;;;10.20;5.13;;;;;;;;;;5046576;28;20037;-70
2021/06/18 13:52:07;;;;;;;14.88;5.47;;;;;;;;;;5045494;28;20029;-70
2021/06/18 13:54:33;;;;;;;17.73;5.45;;;;;;;;;;5046672;28;20393;-69
2021/06/18 13:56:59;;;;;;;11.43;5.25;;;;;;;;;;5046682;28;20033;-69
2021/06/18 13:59:25;;;;;;;13.63;5.55;;;;;;;;;;5046210;28;20040;-69
2021/06/18 14:01:54;;;;;;;9.77;5.13;;;;;;;;;;5045163;28;20036;-69
2021/06/18 14:04:20;;;;;;;17.58;5.63;;;;;;;;;;5045022;28;20100;-69
2021/06/18 14:06:46;;;;;;;13.20;6.22;;;;;;;;;;5046109;28;20506;-69
2021/06/18 14:09:12;;;;;;;14.80;6.35;;;;;;;;;;5045604;28;20547;-69
2021/06/18 14:11:38;;;;;;;13.32;5.70;;;;;;;;;;5046671;28;20037;-69
2021/06/18 14:14:05;;;;;;;15.45;5.82;;;;;;;;;;5047539;28;20509;-69
2021/06/18 14:16:45;;;;;;;10.73;6.07;;;;;;;;;;5046559;28;20025;-69
2021/06/18 14:19:12;;;;;;;10.05;6.13;;;;;;;;;;5045820;28;20044;-69
2021/06/18 14:21:38;;;;;;;10.13;6.00;;;;;;;;;;5045168;28;20060;-68
2021/06/18 14:24:05;;;;;;;12.43;5.78;;;;;;;;;;5045214;28;20071;-70
2021/06/18 14:26:31;;;;;;;9.82;5.97;;;;;;;;;;5043037;28;20833;-70
2021/06/18 14:28:57;;;;;;;8.55;5.65;;;;;;;;;;5041981;28;20017;-69
2021/06/18 14:31:24;;;;;;;13.57;6.22;;;;;;;;;;5043908;28;20037;-69